createdAt,value
2018-12-11T00:02:23.528Z,89.80
2018-12-11T00:04:52.312Z,90.00
2018-12-11T00:07:21.025Z,90.00
2018-12-11T00:12:18.112Z,90.20
2018-12-11T00:14:53.064Z,90.30
2018-12-11T00:17:22.593Z,90.50
2018-12-11T00:19:51.318Z,90.30
2018-12-11T00:22:26.340Z,90.40
2018-12-11T00:25:01.463Z,90.50
2018-12-11T00:27:30.201Z,90.40
2018-12-11T00:29:59.006Z,90.60
2018-12-11T00:32:33.988Z,90.60
2018-12-11T00:35:02.764Z,90.40
2018-12-11T00:40:01.941Z,90.40
2018-12-11T00:45:06.164Z,90.50
2018-12-11T00:47:34.864Z,90.70
2018-12-11T00:50:03.865Z,90.80
2018-12-11T00:52:32.636Z,91.00
2018-12-11T00:55:07.712Z,91.20
2018-12-11T00:57:36.527Z,91.00
2018-12-11T01:00:06.900Z,91.00
2018-12-11T01:02:35.731Z,91.20
2018-12-11T01:05:10.799Z,91.10
2018-12-11T01:10:14.153Z,91.30
2018-12-11T01:12:42.824Z,91.40
2018-12-11T01:20:08.626Z,91.30
2018-12-11T01:25:05.875Z,91.50
2018-12-11T01:27:34.572Z,91.50
2018-12-11T01:30:03.409Z,91.60
2018-12-11T01:32:32.303Z,91.70
2018-12-11T01:35:01.051Z,91.70
2018-12-11T01:40:00.104Z,91.30
2018-12-11T01:42:28.929Z,91.40
2018-12-11T01:44:57.597Z,91.50
2018-12-11T01:49:54.799Z,90.90
2018-12-11T01:52:23.481Z,91.00
2018-12-11T01:57:20.536Z,91.20
2018-12-11T01:59:49.224Z,91.40
2018-12-11T02:04:52.557Z,91.20
2018-12-11T02:09:55.764Z,91.40
2018-12-11T02:12:24.531Z,91.10
2018-12-11T02:19:49.948Z,91.10
2018-12-11T02:22:18.635Z,91.00
2018-12-11T02:24:47.316Z,91.00
2018-12-11T02:27:16.059Z,90.90
2018-12-11T02:32:13.129Z,91.00
2018-12-11T02:34:41.924Z,91.00
2018-12-11T02:37:10.792Z,90.80
2018-12-11T02:39:40.275Z,90.90
2018-12-11T02:42:08.956Z,90.90
2018-12-11T02:49:34.494Z,91.20
2018-12-11T02:52:03.237Z,91.30
2018-12-11T02:54:33.005Z,91.20
2018-12-11T02:57:01.688Z,91.20
2018-12-11T02:59:30.384Z,91.20
2018-12-11T03:02:00.010Z,91.10
2018-12-11T03:04:35.410Z,91.20
2018-12-11T03:09:32.703Z,91.30
2018-12-11T03:14:30.010Z,91.00
2018-12-11T03:16:58.739Z,91.10
2018-12-11T03:19:27.443Z,91.10
2018-12-11T03:21:56.984Z,91.00
2018-12-11T03:26:54.807Z,91.10
2018-12-11T03:29:23.513Z,91.20
2018-12-11T03:31:52.345Z,91.20
2018-12-11T03:34:21.076Z,91.20
2018-12-11T03:36:56.025Z,91.10
2018-12-11T03:39:24.756Z,91.10
2018-12-11T03:44:22.034Z,91.40
2018-12-11T03:49:20.112Z,91.30
2018-12-11T03:51:48.736Z,91.30
2018-12-11T03:54:18.260Z,91.10
2018-12-11T03:56:53.239Z,91.10
2018-12-11T03:59:21.971Z,91.10
2018-12-11T04:01:50.651Z,91.00
2018-12-11T04:04:19.344Z,91.00
2018-12-11T04:06:54.150Z,90.80
2018-12-11T04:11:51.347Z,90.90
2018-12-11T04:14:20.491Z,90.90
2018-12-11T04:16:51.041Z,91.00
2018-12-11T04:21:48.887Z,91.00
2018-12-11T04:24:17.577Z,91.10
2018-12-11T04:29:20.791Z,91.10
2018-12-11T04:31:49.485Z,91.00
2018-12-11T04:34:18.172Z,91.00
2018-12-11T04:36:53.019Z,90.90
2018-12-11T04:39:22.508Z,91.20
2018-12-11T04:41:51.247Z,91.10
2018-12-11T04:44:26.183Z,91.10
2018-12-11T04:46:54.964Z,91.10
2018-12-11T04:49:23.664Z,91.10
2018-12-11T04:51:58.676Z,91.10
2018-12-11T04:54:33.641Z,91.10
2018-12-11T04:57:02.562Z,91.00
2018-12-11T04:59:31.191Z,90.70
2018-12-11T05:04:28.294Z,90.90
2018-12-11T05:06:57.024Z,91.00
2018-12-11T05:12:00.560Z,90.80
2018-12-11T05:19:26.061Z,91.00
2018-12-11T05:21:54.732Z,90.90
2018-12-11T05:26:58.734Z,91.00
2018-12-11T05:29:27.419Z,91.00
2018-12-11T05:31:56.111Z,90.70
2018-12-11T05:41:50.144Z,90.90
2018-12-11T05:44:24.946Z,90.90
2018-12-11T05:46:53.720Z,91.00
2018-12-11T05:51:51.808Z,90.80
2018-12-11T05:56:55.029Z,90.70
2018-12-11T05:59:25.658Z,90.90
2018-12-11T06:01:54.471Z,90.90
2018-12-11T06:09:19.911Z,91.00
2018-12-11T06:11:48.759Z,91.10
2018-12-11T06:14:18.272Z,90.90
2018-12-11T06:19:21.705Z,90.70
2018-12-11T06:21:50.403Z,90.70
2018-12-11T06:24:25.251Z,90.70
2018-12-11T06:26:54.751Z,90.70
2018-12-11T06:29:29.610Z,90.70
2018-12-11T06:31:58.275Z,90.80
2018-12-11T06:34:26.992Z,90.50
2018-12-11T06:37:01.795Z,90.30
2018-12-11T06:39:30.609Z,91.00
2018-12-11T06:42:05.668Z,90.60
2018-12-11T06:44:34.468Z,90.60
2018-12-11T06:47:03.238Z,90.50
2018-12-11T06:49:31.931Z,90.60
2018-12-11T06:52:00.720Z,90.70
2018-12-11T06:54:29.472Z,91.00
2018-12-11T06:57:01.972Z,90.50
2018-12-11T06:59:30.671Z,90.50
2018-12-11T07:01:59.361Z,90.70
2018-12-11T07:04:34.395Z,90.60
2018-12-11T07:07:09.220Z,90.80
2018-12-11T07:09:39.867Z,90.60
2018-12-11T07:12:14.728Z,90.70
2018-12-11T07:14:43.434Z,90.90
2018-12-11T07:17:18.242Z,90.90
2018-12-11T07:19:53.311Z,91.00
2018-12-11T07:22:22.819Z,91.30
2018-12-11T07:24:58.820Z,90.90
2018-12-11T07:27:33.775Z,90.70
2018-12-11T07:30:02.545Z,90.80
2018-12-11T07:32:31.238Z,90.90
2018-12-11T07:35:06.332Z,90.80
2018-12-11T07:37:41.179Z,90.90
2018-12-11T07:40:10.068Z,90.90
2018-12-11T07:42:44.829Z,90.80
2018-12-11T07:45:13.568Z,90.80
2018-12-11T07:47:42.264Z,90.70
2018-12-11T07:50:11.063Z,91.00
2018-12-11T07:52:39.775Z,90.70
2018-12-11T07:55:14.808Z,90.50
2018-12-11T07:57:43.508Z,90.40
2018-12-11T08:00:12.259Z,90.60
2018-12-11T08:02:40.979Z,90.50
2018-12-11T08:05:09.720Z,90.80
2018-12-11T08:07:38.492Z,90.40
2018-12-11T08:10:07.376Z,90.40
2018-12-11T08:12:36.113Z,90.50
2018-12-11T08:15:11.424Z,90.50
2018-12-11T08:17:40.127Z,90.40
2018-12-11T08:20:08.947Z,90.70
2018-12-11T08:22:37.680Z,90.30
2018-12-11T08:25:06.376Z,90.60
2018-12-11T08:27:41.307Z,90.30
2018-12-11T08:30:09.992Z,90.60
2018-12-11T08:32:45.019Z,90.50
2018-12-11T08:37:42.185Z,90.00
2018-12-11T08:40:10.879Z,89.50
2018-12-11T08:45:08.292Z,88.00
2018-12-11T08:47:37.068Z,89.30
2018-12-11T08:50:12.040Z,88.70
2018-12-11T08:52:40.728Z,89.30
2018-12-11T08:55:09.516Z,88.90
2018-12-11T08:57:44.306Z,89.80
2018-12-11T09:00:13.205Z,87.10
2018-12-11T09:02:48.096Z,86.50
2018-12-11T09:05:23.099Z,87.20
2018-12-11T09:07:57.881Z,86.10
2018-12-11T09:10:26.588Z,86.20
2018-12-11T09:13:01.458Z,86.30
2018-12-11T09:15:36.374Z,86.30
2018-12-11T09:18:05.063Z,85.40
2018-12-11T09:20:33.774Z,86.00
2018-12-11T09:23:02.508Z,86.30
2018-12-11T09:25:31.307Z,86.30
2018-12-11T09:28:00.004Z,86.40
2018-12-11T09:30:28.787Z,86.70
2018-12-11T09:32:57.545Z,87.30
2018-12-11T09:35:26.371Z,86.80
2018-12-11T09:37:55.166Z,87.10
2018-12-11T09:40:24.598Z,86.30
2018-12-11T09:42:53.620Z,85.80
2018-12-11T09:45:23.120Z,86.50
2018-12-11T09:47:51.864Z,87.10
2018-12-11T09:50:20.552Z,86.30
2018-12-11T09:52:49.264Z,87.00
2018-12-11T09:55:17.954Z,87.20
2018-12-11T09:57:52.920Z,87.50
2018-12-11T10:00:27.844Z,87.20
2018-12-11T10:02:57.384Z,87.90
2018-12-11T10:05:32.343Z,87.60
2018-12-11T10:08:01.507Z,87.50
2018-12-11T10:10:31.035Z,88.10
2018-12-11T10:15:28.124Z,87.80
2018-12-11T10:17:56.823Z,87.50
2018-12-11T10:20:25.505Z,86.10
2018-12-11T10:22:54.459Z,86.10
2018-12-11T10:25:23.324Z,84.90
2018-12-11T10:27:52.039Z,84.50
2018-12-11T10:30:20.724Z,85.20
2018-12-11T10:32:52.350Z,86.50
2018-12-11T10:35:27.289Z,87.60
2018-12-11T10:37:55.991Z,88.90
2018-12-11T10:40:30.971Z,88.50
2018-12-11T10:42:59.709Z,89.20
2018-12-11T10:45:28.501Z,89.20
2018-12-11T10:48:03.776Z,89.70
2018-12-11T10:50:32.451Z,90.20
2018-12-11T10:53:01.966Z,90.10
2018-12-11T10:57:59.232Z,90.30
2018-12-11T11:00:39.847Z,90.30
2018-12-11T11:03:08.692Z,90.50
2018-12-11T11:08:05.755Z,90.70
2018-12-11T11:10:34.502Z,90.50
2018-12-11T11:13:03.262Z,90.80
2018-12-11T11:15:39.170Z,90.70
2018-12-11T11:18:14.272Z,90.90
2018-12-11T11:20:42.953Z,90.90
2018-12-11T11:23:17.964Z,91.10
2018-12-11T11:28:22.221Z,91.30
2018-12-11T11:30:51.022Z,91.40
2018-12-11T11:36:00.476Z,91.00
2018-12-11T11:38:35.270Z,90.80
2018-12-11T11:41:04.097Z,90.70
2018-12-11T11:43:32.835Z,90.60
2018-12-11T11:46:01.655Z,90.60
2018-12-11T11:48:30.339Z,91.00
2018-12-11T11:53:27.379Z,90.40
2018-12-11T11:55:56.063Z,90.70
2018-12-11T11:58:24.740Z,90.70
2018-12-11T12:00:53.479Z,91.00
2018-12-11T12:03:28.335Z,91.20
2018-12-11T12:05:57.017Z,90.90
2018-12-11T12:08:25.708Z,90.80
2018-12-11T12:10:54.375Z,90.70
2018-12-11T12:15:51.507Z,90.20
2018-12-11T12:18:20.972Z,90.20
2018-12-11T12:20:55.897Z,90.00
2018-12-11T12:23:24.583Z,90.30
2018-12-11T12:25:59.470Z,90.20
2018-12-11T12:28:34.331Z,90.50
2018-12-11T12:31:03.278Z,89.70
2018-12-11T12:33:38.134Z,89.80
2018-12-11T12:36:08.003Z,89.70
2018-12-11T12:38:36.672Z,89.30
2018-12-11T12:48:36.558Z,88.90
2018-12-11T12:51:50.684Z,88.90
2018-12-11T12:54:25.640Z,89.10
2018-12-11T12:57:00.455Z,88.90
2018-12-11T12:59:31.247Z,89.60
2018-12-11T13:02:04.028Z,89.80
2018-12-11T13:04:32.929Z,89.80
2018-12-11T13:11:58.372Z,89.80
2018-12-11T13:14:27.114Z,89.70
2018-12-11T13:21:58.719Z,88.50
2018-12-11T13:24:33.592Z,86.70
2018-12-11T13:27:08.244Z,87.10
2018-12-11T13:29:38.023Z,87.50
2018-12-11T13:32:06.771Z,87.50
2018-12-11T13:37:10.128Z,86.70
2018-12-11T13:39:38.900Z,86.70
2018-12-11T13:44:36.047Z,85.10
2018-12-11T13:52:08.692Z,86.30
2018-12-11T13:54:37.390Z,86.30
2018-12-11T13:57:12.207Z,86.50
2018-12-11T14:04:50.266Z,86.80
2018-12-11T14:07:19.106Z,87.20
2018-12-11T14:12:22.539Z,86.90
2018-12-11T14:14:51.311Z,86.90
2018-12-11T14:17:20.802Z,87.70
2018-12-11T14:19:55.737Z,87.70
2018-12-11T14:22:24.463Z,88.40
2018-12-11T14:24:59.603Z,88.20
2018-12-11T14:29:57.463Z,89.00
2018-12-11T14:32:32.257Z,89.10
2018-12-11T14:35:07.141Z,88.90
2018-12-11T14:37:36.006Z,89.10
2018-12-11T14:40:05.181Z,89.30
2018-12-11T14:42:39.984Z,89.50
2018-12-11T14:45:08.923Z,88.90
2018-12-11T14:50:07.792Z,89.70
2018-12-11T14:52:36.577Z,89.90
2018-12-11T14:55:05.799Z,89.70
2018-12-11T14:57:34.585Z,90.00
2018-12-11T15:00:11.179Z,90.20
2018-12-11T15:02:40.215Z,90.50
2018-12-11T15:05:09.262Z,90.80
2018-12-11T15:07:38.140Z,91.00
2018-12-11T15:10:09.488Z,91.10
2018-12-11T15:12:38.191Z,91.40
2018-12-11T15:17:37.040Z,91.80
2018-12-11T15:20:12.218Z,92.20
2018-12-11T15:22:40.840Z,92.30
2018-12-11T15:25:10.317Z,92.50
2018-12-11T15:27:39.322Z,92.70
2018-12-11T15:30:08.931Z,92.60
2018-12-11T15:32:37.687Z,92.80
2018-12-11T15:35:12.575Z,92.90
2018-12-11T15:37:42.071Z,92.90
2018-12-11T15:40:10.860Z,93.20
2018-12-11T15:42:45.768Z,93.50
2018-12-11T15:45:21.205Z,93.50
2018-12-11T15:47:49.884Z,93.00
2018-12-11T15:50:18.640Z,92.80
2018-12-11T15:52:53.447Z,92.90
2018-12-11T15:55:22.280Z,92.80
2018-12-11T15:57:50.982Z,93.10
2018-12-11T16:00:19.824Z,93.30
2018-12-11T16:02:54.795Z,93.50
2018-12-11T16:07:52.931Z,93.60
2018-12-11T16:12:56.148Z,93.60
2018-12-11T16:15:31.232Z,93.50
2018-12-11T16:18:06.199Z,93.40
2018-12-11T16:20:37.848Z,93.50
2018-12-11T16:23:06.519Z,93.50
2018-12-11T16:25:35.307Z,93.50
2018-12-11T16:28:04.067Z,93.20
2018-12-11T16:30:39.035Z,92.80
2018-12-11T16:45:54.304Z,93.10
2018-12-11T16:51:01.685Z,93.00
2018-12-11T16:56:06.035Z,92.50
2018-12-11T16:58:41.008Z,92.60
2018-12-11T17:06:12.709Z,92.60
2018-12-11T17:11:16.224Z,93.00
2018-12-11T17:13:45.019Z,93.00
2018-12-11T17:21:16.736Z,93.40
2018-12-11T17:26:26.269Z,93.70
2018-12-11T17:28:54.941Z,93.30
2018-12-11T17:33:58.296Z,93.20
2018-12-11T17:36:27.023Z,93.50
2018-12-11T17:46:40.739Z,93.10
2018-12-11T17:49:09.508Z,93.30
2018-12-11T17:54:06.592Z,93.30
2018-12-11T18:01:40.803Z,93.50
2018-12-11T18:06:50.405Z,93.70
2018-12-11T18:14:22.988Z,93.80
2018-12-11T18:19:26.223Z,94.10
2018-12-11T18:26:57.959Z,94.00
2018-12-11T18:37:08.960Z,93.80
2018-12-11T18:39:43.861Z,93.60
2018-12-11T18:42:12.795Z,93.60
2018-12-11T18:44:41.693Z,93.80
2018-12-11T18:47:10.399Z,94.00
2018-12-11T18:52:07.743Z,94.40
2018-12-11T18:54:42.687Z,94.50
2018-12-11T18:57:12.251Z,94.80
2018-12-11T18:59:47.112Z,94.80
2018-12-11T19:02:22.130Z,94.80
2018-12-11T19:04:50.890Z,94.70
2018-12-11T19:12:17.571Z,94.70
2018-12-11T19:14:46.253Z,94.80
2018-12-11T19:17:21.188Z,94.20
2018-12-11T19:19:50.041Z,94.00
2018-12-11T19:22:19.276Z,94.00
2018-12-11T19:24:56.247Z,94.10
2018-12-11T19:27:31.052Z,94.10
2018-12-11T19:30:06.308Z,94.10
2018-12-11T19:32:35.811Z,94.40
2018-12-11T19:35:04.787Z,94.30
2018-12-11T19:40:02.350Z,94.10
2018-12-11T19:42:31.115Z,94.30
2018-12-11T19:44:59.850Z,94.40
2018-12-11T19:47:28.557Z,94.40
2018-12-11T19:49:57.253Z,94.00
2018-12-11T19:52:25.995Z,93.80
2018-12-11T19:54:54.732Z,94.10
2018-12-11T19:57:23.506Z,94.20
2018-12-11T19:59:58.364Z,94.00
2018-12-11T20:07:29.945Z,94.50
2018-12-11T20:10:04.052Z,94.30
2018-12-11T20:12:32.744Z,94.00
2018-12-11T20:15:04.736Z,94.20
2018-12-11T20:17:38.354Z,94.20
2018-12-11T20:20:07.750Z,94.40
2018-12-11T20:22:42.564Z,94.20
2018-12-11T20:25:11.277Z,94.10
2018-12-11T20:27:46.205Z,94.30
2018-12-11T20:32:43.293Z,94.10
2018-12-11T20:35:12.071Z,94.30
2018-12-11T20:37:46.918Z,94.10
2018-12-11T20:40:21.971Z,94.10
2018-12-11T20:42:56.971Z,94.10
2018-12-11T20:45:25.687Z,94.00
2018-12-11T20:50:28.905Z,94.10
2018-12-11T20:53:03.840Z,94.20
2018-12-11T20:55:32.526Z,94.30
2018-12-11T20:58:01.267Z,94.10
2018-12-11T21:00:36.393Z,94.20
2018-12-11T21:03:05.159Z,94.10
2018-12-11T21:05:33.939Z,94.30
2018-12-11T21:08:03.541Z,94.00
2018-12-11T21:10:32.288Z,93.90
2018-12-11T21:13:01.778Z,93.90
2018-12-11T21:15:30.551Z,93.90
2018-12-11T21:18:05.370Z,94.00
2018-12-11T21:20:34.147Z,94.00
2018-12-11T21:23:09.059Z,93.90
2018-12-11T21:25:43.896Z,94.10
2018-12-11T21:28:12.676Z,94.20
2018-12-11T21:30:45.533Z,94.30
2018-12-11T21:33:14.345Z,94.70
2018-12-11T21:35:43.117Z,94.80
2018-12-11T21:38:12.735Z,94.80
2018-12-11T21:40:44.431Z,94.70
2018-12-11T21:43:13.164Z,94.60
2018-12-11T21:45:41.903Z,94.60
2018-12-11T21:48:10.637Z,94.60
2018-12-11T21:50:39.513Z,94.60
2018-12-11T21:53:14.373Z,94.70
2018-12-11T21:55:49.423Z,94.70
2018-12-11T21:58:18.209Z,94.70
2018-12-11T22:03:16.329Z,94.70
2018-12-11T22:05:45.008Z,94.70
2018-12-11T22:10:42.071Z,94.70
2018-12-11T22:13:10.799Z,94.70
2018-12-11T22:15:39.488Z,94.60
2018-12-11T22:20:42.944Z,94.60
2018-12-11T22:25:47.114Z,94.10
2018-12-11T22:28:15.859Z,94.30
2018-12-11T22:30:45.728Z,94.30
2018-12-11T22:33:20.663Z,94.30
2018-12-11T22:35:49.502Z,94.40
2018-12-11T22:38:18.188Z,94.40
2018-12-11T22:40:53.192Z,94.60
2018-12-11T22:43:28.128Z,94.10
2018-12-11T22:45:58.454Z,93.70
2018-12-11T22:48:27.309Z,93.70
2018-12-11T22:50:56.065Z,93.90
2018-12-11T22:53:30.799Z,93.90
2018-12-11T22:55:59.508Z,94.00
2018-12-11T22:58:28.219Z,93.90
2018-12-11T23:00:57.069Z,93.80
2018-12-11T23:03:25.822Z,93.90
2018-12-11T23:06:00.539Z,93.90
2018-12-11T23:08:29.292Z,93.90
2018-12-11T23:11:04.348Z,94.00
2018-12-11T23:13:33.135Z,94.00
2018-12-11T23:21:02.266Z,93.70
2018-12-11T23:23:37.318Z,93.60
2018-12-11T23:26:12.340Z,93.70
2018-12-11T23:31:09.568Z,93.60
2018-12-11T23:36:09.684Z,93.80
2018-12-11T23:38:44.509Z,93.90
2018-12-11T23:43:47.693Z,93.70
2018-12-11T23:46:16.387Z,93.90
2018-12-11T23:48:51.280Z,94.20
2018-12-11T23:51:26.176Z,94.20
2018-12-11T23:54:01.033Z,94.00
2018-12-11T23:56:35.915Z,94.00
2018-12-11T23:59:04.772Z,94.00
